Time;durP1;ratioP1;P1;durP2;ratioP2;P2;SDS_P1;SDS_P2;PMS_P1;PMS_P2;Temp;Humidity;BMP_temperature;BMP_pressure;BME280_temperature;BME280_humidity;BME280_pressure;Samples;Min_cycle;Max_cycle;Signal;HPM_P1;HPM_P2
2021/03/01 00:00:41;;;;;;;30.70;20.25;;;8.10;99.90;;;;;;5090747;28;20074;-82
2021/03/01 00:03:07;;;;;;;25.25;19.52;;;7.90;99.90;;;;;;5091800;28;20468;-82
2021/03/01 00:05:33;;;;;;;29.83;21.35;;;7.60;99.90;;;;;;5076666;28;20026;-82
2021/03/01 00:07:59;;;;;;;27.30;19.92;;;7.60;99.90;;;;;;5093830;28;20032;-82
2021/03/01 00:10:24;;;;;;;27.58;20.23;;;7.60;99.90;;;;;;5096692;28;20528;-83
2021/03/01 00:12:51;;;;;;;30.67;21.30;;;8.00;99.90;;;;;;5095135;28;20081;-82
2021/03/01 00:15:19;;;;;;;29.75;20.45;;;7.90;99.90;;;;;;5097345;28;20024;-82
2021/03/01 00:17:45;;;;;;;27.00;19.35;;;7.60;99.90;;;;;;5097131;28;20126;-82
2021/03/01 00:20:12;;;;;;;25.38;19.83;;;7.90;99.90;;;;;;5097333;28;20110;-82
2021/03/01 00:22:40;;;;;;;26.80;20.48;;;7.60;99.90;;;;;;5097106;28;20028;-82
2021/03/01 00:25:07;;;;;;;26.63;19.88;;;7.60;99.90;;;;;;5079731;28;20036;-82
2021/03/01 00:27:33;;;;;;;25.77;20.23;;;7.70;99.90;;;;;;5089250;28;20036;-82
2021/03/01 00:29:59;;;;;;;27.23;20.17;;;7.70;99.90;;;;;;5082641;28;20021;-82
2021/03/01 00:32:24;;;;;;;28.25;20.25;;;8.00;99.90;;;;;;5095594;28;20570;-82
2021/03/01 00:34:50;;;;;;;27.38;19.92;;;7.60;99.90;;;;;;5096664;28;20024;-82
2021/03/01 00:37:16;;;;;;;27.98;20.70;;;7.50;99.90;;;;;;5096463;28;20020;-82
2021/03/01 00:39:41;;;;;;;28.20;20.20;;;7.60;99.90;;;;;;5095823;28;20020;-82
2021/03/01 00:42:07;;;;;;;29.65;19.90;;;7.70;99.90;;;;;;5082434;28;20082;-82
2021/03/01 00:44:33;;;;;;;28.13;20.23;;;8.00;99.90;;;;;;5087119;28;20364;-81
2021/03/01 00:46:59;;;;;;;26.77;19.35;;;7.60;99.90;;;;;;5096576;28;20059;-82
2021/03/01 00:49:24;;;;;;;26.38;19.13;;;7.80;99.90;;;;;;5078368;28;20063;-82
2021/03/01 00:51:50;;;;;;;27.83;20.40;;;7.90;99.90;;;;;;5076272;28;20100;-82
2021/03/01 00:54:16;;;;;;;28.73;19.77;;;7.80;99.90;;;;;;5076061;28;20020;-82
2021/03/01 00:56:41;;;;;;;24.30;19.77;;;7.70;99.90;;;;;;5084069;28;20054;-82
2021/03/01 00:59:07;;;;;;;25.33;19.10;;;7.60;99.90;;;;;;5096225;28;20514;-82
2021/03/01 01:01:33;;;;;;;27.55;19.95;;;7.90;99.90;;;;;;5078119;28;20111;-82
2021/03/01 01:03:58;;;;;;;24.88;18.17;;;8.00;99.90;;;;;;5080250;28;20056;-82
2021/03/01 01:06:24;;;;;;;27.00;18.80;;;7.90;99.90;;;;;;5093995;28;20024;-82
2021/03/01 01:08:49;;;;;;;28.73;18.90;;;8.00;99.90;;;;;;5075583;28;20503;-82
2021/03/01 01:11:15;;;;;;;28.05;19.10;;;7.90;99.90;;;;;;5092384;28;20415;-82
2021/03/01 01:13:41;;;;;;;26.85;19.55;;;7.60;99.90;;;;;;5062360;28;20019;-82
2021/03/01 01:16:06;;;;;;;26.73;18.70;;;8.10;99.90;;;;;;5095939;28;20024;-82
2021/03/01 01:18:32;;;;;;;27.75;18.58;;;8.10;99.90;;;;;;5095751;28;20023;-82
2021/03/01 01:20:58;;;;;;;25.95;18.67;;;7.90;99.90;;;;;;5095974;28;20031;-82
2021/03/01 01:23:23;;;;;;;29.70;19.25;;;7.60;99.90;;;;;;5095362;28;20028;-82
2021/03/01 01:25:49;;;;;;;27.00;18.85;;;7.60;99.90;;;;;;5094484;28;20028;-82
2021/03/01 01:28:15;;;;;;;23.55;17.90;;;7.60;99.90;;;;;;5095639;28;20032;-82
2021/03/01 01:30:41;;;;;;;26.33;19.15;;;7.60;99.90;;;;;;5090312;28;20032;-82
2021/03/01 01:33:07;;;;;;;25.60;19.02;;;8.00;99.90;;;;;;5085270;28;20035;-82
2021/03/01 01:35:32;;;;;;;26.33;18.25;;;7.60;99.90;;;;;;5092483;28;20024;-82
2021/03/01 01:37:58;;;;;;;25.98;18.25;;;7.90;99.90;;;;;;5074967;28;20032;-82
2021/03/01 01:40:24;;;;;;;30.02;18.45;;;7.80;99.90;;;;;;5078058;28;20031;-82
2021/03/01 01:42:51;;;;;;;24.50;18.00;;;7.90;99.90;;;;;;5077163;28;20476;-82
2021/03/01 01:45:22;;;;;;;27.42;17.17;;;8.00;99.90;;;;;;5095323;28;20028;-82
2021/03/01 01:47:50;;;;;;;23.92;19.02;;;7.80;99.90;;;;;;5095001;28;20055;-82
2021/03/01 01:50:17;;;;;;;24.75;18.80;;;7.60;99.90;;;;;;5095305;28;20520;-82
2021/03/01 01:52:43;;;;;;;24.70;19.00;;;8.00;99.90;;;;;;5094989;28;20394;-82
2021/03/01 01:55:09;;;;;;;26.27;17.55;;;7.60;99.90;;;;;;5090084;28;20028;-82
2021/03/01 01:57:40;;;;;;;26.30;18.23;;;7.60;99.90;;;;;;5075042;28;20016;-82
2021/03/01 02:00:20;;;;;;;26.98;18.13;;;7.60;99.90;;;;;;5075009;28;20029;-83
2021/03/01 02:02:51;;;;;;;25.45;18.15;;;7.60;99.90;;;;;;5074668;28;20044;-82
2021/03/01 02:05:17;;;;;;;28.60;18.65;;;7.50;99.90;;;;;;5057055;28;20487;-82
2021/03/01 02:07:55;;;;;;;24.55;17.90;;;7.90;99.90;;;;;;5074683;28;20262;-82
2021/03/01 02:10:26;;;;;;;25.23;17.88;;;7.50;99.90;;;;;;5075787;28;20040;-82
2021/03/01 02:13:06;;;;;;;25.95;18.55;;;7.50;99.90;;;;;;5074564;28;20028;-82
2021/03/01 02:15:37;;;;;;;26.98;17.55;;;7.50;99.90;;;;;;5074733;28;20031;-82
2021/03/01 02:18:03;;;;;;;23.60;17.73;;;7.90;99.90;;;;;;5070085;28;20502;-82
2021/03/01 02:20:29;;;;;;;28.35;18.45;;;7.50;99.90;;;;;;5094505;28;20024;-82
2021/03/01 02:22:55;;;;;;;24.25;17.83;;;7.80;99.90;;;;;;5094486;28;20034;-82
2021/03/01 02:25:27;;;;;;;24.10;17.85;;;7.80;99.90;;;;;;5087909;28;20045;-82
2021/03/01 02:28:01;;;;;;;28.67;18.85;;;7.50;99.90;;;;;;5094257;28;20495;-82
2021/03/01 02:30:37;;;;;;;25.98;17.75;;;7.50;99.90;;;;;;5093068;28;20022;-82
2021/03/01 02:33:10;;;;;;;23.95;18.42;;;7.50;99.90;;;;;;5074496;28;20488;-82
2021/03/01 02:35:40;;;;;;;27.63;17.95;;;7.60;99.90;;;;;;5093394;28;20035;-82
2021/03/01 02:38:09;;;;;;;27.30;17.92;;;7.80;99.90;;;;;;5093950;28;20020;-82
2021/03/01 02:40:41;;;;;;;25.35;18.05;;;7.40;99.90;;;;;;5092942;28;20036;-82
2021/03/01 02:43:07;;;;;;;27.85;18.10;;;7.90;99.90;;;;;;5093132;28;20112;-82
2021/03/01 02:45:33;;;;;;;24.63;18.08;;;7.50;99.90;;;;;;5075939;28;20064;-82
2021/03/01 02:48:01;;;;;;;26.25;17.65;;;7.40;99.90;;;;;;5073220;28;20032;-82
2021/03/01 02:50:28;;;;;;;26.42;18.30;;;7.40;99.90;;;;;;5073178;28;20032;-82
2021/03/01 02:52:54;;;;;;;26.67;18.23;;;7.40;99.90;;;;;;5073086;28;20032;-82
2021/03/01 02:55:22;;;;;;;24.95;17.63;;;7.50;99.90;;;;;;5085871;28;20020;-82
2021/03/01 02:57:49;;;;;;;26.67;17.80;;;7.70;99.90;;;;;;5082006;28;20107;-82
2021/03/01 03:00:16;;;;;;;25.45;18.23;;;7.30;99.90;;;;;;5073224;28;20029;-82
2021/03/01 03:02:43;;;;;;;25.17;17.92;;;7.30;99.90;;;;;;5072724;28;20130;-82
2021/03/01 03:05:12;;;;;;;24.08;17.25;;;7.30;99.90;;;;;;5072472;28;20028;-82
2021/03/01 03:07:40;;;;;;;24.20;16.85;;;7.20;99.90;;;;;;5091632;28;20077;-82
2021/03/01 03:10:08;;;;;;;25.15;17.83;;;7.70;99.90;;;;;;5092286;28;20036;-82
2021/03/01 03:12:34;;;;;;;22.77;17.23;;;7.20;99.90;;;;;;5092998;28;20026;-82
2021/03/01 03:15:02;;;;;;;27.02;17.77;;;7.20;99.90;;;;;;5092453;28;20057;-82
2021/03/01 03:17:31;;;;;;;23.40;17.45;;;7.40;99.90;;;;;;5093177;28;20024;-82
2021/03/01 03:19:59;;;;;;;25.40;18.15;;;7.60;99.90;;;;;;5092361;28;20032;-82
2021/03/01 03:22:25;;;;;;;28.33;18.02;;;7.50;99.90;;;;;;5093110;28;20111;-82
2021/03/01 03:24:50;;;;;;;25.95;18.30;;;7.70;99.90;;;;;;5086416;28;20107;-82
2021/03/01 03:27:16;;;;;;;27.08;18.75;;;7.50;99.90;;;;;;5089260;28;20398;-82
2021/03/01 03:29:41;;;;;;;21.00;17.20;;;7.40;99.90;;;;;;5080074;28;20024;-82
2021/03/01 03:32:08;;;;;;;24.23;17.40;;;7.30;99.90;;;;;;5084096;28;20070;-82
2021/03/01 03:34:33;;;;;;;23.77;17.30;;;7.50;99.90;;;;;;5085230;28;20024;-82
2021/03/01 03:37:11;;;;;;;24.42;18.17;;;7.50;99.90;;;;;;5092345;28;20032;-82
2021/03/01 03:39:42;;;;;;;23.80;18.02;;;7.40;99.90;;;;;;5078742;28;20073;-82
2021/03/01 03:42:10;;;;;;;24.45;17.85;;;7.00;99.90;;;;;;5092777;28;20074;-82
2021/03/01 03:44:40;;;;;;;26.55;17.75;;;7.00;99.90;;;;;;5092717;28;20028;-82
2021/03/01 03:47:06;;;;;;;25.92;17.85;;;6.90;99.90;;;;;;5092410;28;20035;-82
2021/03/01 03:49:35;;;;;;;22.67;17.17;;;7.40;99.90;;;;;;5074536;28;20028;-82
2021/03/01 03:52:03;;;;;;;26.75;18.23;;;6.90;99.90;;;;;;5092219;28;20482;-82
2021/03/01 03:54:30;;;;;;;24.98;17.50;;;6.80;99.90;;;;;;5084801;28;20016;-82
2021/03/01 03:56:57;;;;;;;23.00;17.95;;;6.90;99.90;;;;;;5092264;28;20035;-82
2021/03/01 03:59:28;;;;;;;29.08;19.42;;;6.90;99.90;;;;;;5080520;28;20089;-83
2021/03/01 04:01:55;;;;;;;26.98;18.05;;;7.30;99.90;;;;;;5087629;28;20031;-82
2021/03/01 04:04:24;;;;;;;24.60;17.10;;;7.30;99.90;;;;;;5091590;28;20032;-82
2021/03/01 04:06:51;;;;;;;29.80;18.05;;;7.40;99.90;;;;;;5092378;28;20496;-82
2021/03/01 04:09:19;;;;;;;24.15;17.58;;;7.20;99.90;;;;;;5084252;28;20041;-82
2021/03/01 04:11:48;;;;;;;24.50;17.63;;;6.80;99.90;;;;;;5072447;28;20086;-82
2021/03/01 04:14:18;;;;;;;25.65;18.63;;;7.20;99.90;;;;;;5073160;28;20033;-82
2021/03/01 04:16:51;;;;;;;29.02;18.20;;;6.70;99.90;;;;;;5074594;28;21121;-82
2021/03/01 04:19:19;;;;;;;26.83;17.90;;;6.80;99.90;;;;;;5091718;28;20107;-82
2021/03/01 04:21:46;;;;;;;24.17;18.00;;;6.70;99.90;;;;;;5092060;28;20043;-82
2021/03/01 04:24:15;;;;;;;26.30;18.23;;;7.10;99.90;;;;;;5088522;28;20078;-82
2021/03/01 04:26:43;;;;;;;24.58;17.67;;;6.70;99.90;;;;;;5071983;28;20027;-82
2021/03/01 04:29:09;;;;;;;27.25;18.88;;;6.60;99.90;;;;;;5092027;28;20028;-82
2021/03/01 04:31:36;;;;;;;28.00;18.65;;;6.60;99.90;;;;;;5091999;28;20016;-82
2021/03/01 04:34:03;;;;;;;24.70;18.58;;;6.90;99.90;;;;;;5092145;28;20017;-82
2021/03/01 04:36:29;;;;;;;23.67;17.48;;;6.60;99.90;;;;;;5073930;28;20028;-82
2021/03/01 04:38:55;;;;;;;25.15;18.35;;;6.80;99.90;;;;;;5091433;28;20020;-82
2021/03/01 04:41:22;;;;;;;29.55;18.10;;;6.50;99.90;;;;;;5091836;28;20040;-82
2021/03/01 04:43:49;;;;;;;24.70;17.75;;;6.50;99.90;;;;;;5092202;28;20484;-82
2021/03/01 04:46:16;;;;;;;26.77;19.10;;;6.60;99.90;;;;;;5091654;28;20032;-82
2021/03/01 04:48:42;;;;;;;26.52;18.63;;;6.60;99.90;;;;;;5091460;28;20109;-82
2021/03/01 04:51:09;;;;;;;27.38;17.90;;;6.50;99.90;;;;;;5073734;28;20068;-82
2021/03/01 04:53:36;;;;;;;26.58;18.52;;;6.60;99.90;;;;;;5092059;28;20426;-82
2021/03/01 04:56:05;;;;;;;26.35;18.90;;;7.00;99.90;;;;;;5094171;28;20028;-82
2021/03/01 04:58:33;;;;;;;28.98;18.90;;;6.50;99.90;;;;;;5095303;28;20031;-82
2021/03/01 05:01:02;;;;;;;26.02;17.90;;;6.50;99.90;;;;;;5094847;28;20021;-82
2021/03/01 05:03:29;;;;;;;28.85;17.98;;;6.50;99.90;;;;;;5095292;28;20040;-82
2021/03/01 05:06:00;;;;;;;25.77;18.20;;;6.50;99.90;;;;;;5095314;28;20016;-82
2021/03/01 05:08:27;;;;;;;28.85;18.48;;;6.70;99.90;;;;;;5076412;28;20429;-82
2021/03/01 05:10:55;;;;;;;26.48;18.75;;;6.40;99.90;;;;;;5075240;28;20512;-82
2021/03/01 05:13:21;;;;;;;27.40;18.00;;;6.70;99.90;;;;;;5075573;28;20051;-82
2021/03/01 05:15:47;;;;;;;23.85;18.17;;;6.50;99.90;;;;;;5074833;28;20025;-82
2021/03/01 05:18:13;;;;;;;25.65;18.58;;;6.40;99.90;;;;;;5075065;28;20211;-82
2021/03/01 05:20:38;;;;;;;26.80;18.55;;;6.80;99.90;;;;;;5075035;28;20101;-82
2021/03/01 05:23:04;;;;;;;25.13;17.48;;;6.30;99.90;;;;;;5074986;28;20036;-82
2021/03/01 05:25:30;;;;;;;26.73;18.85;;;6.30;99.90;;;;;;5075853;28;20032;-82
2021/03/01 05:27:56;;;;;;;25.75;18.13;;;6.30;99.90;;;;;;5069482;28;20043;-82
2021/03/01 05:30:22;;;;;;;26.77;19.08;;;6.80;99.90;;;;;;5093980;28;20028;-82
2021/03/01 05:32:47;;;;;;;27.38;18.83;;;6.30;99.90;;;;;;5094956;28;20016;-82
2021/03/01 05:35:13;;;;;;;25.50;19.05;;;6.30;99.90;;;;;;5094959;28;20028;-82
2021/03/01 05:37:39;;;;;;;27.00;18.23;;;6.30;99.90;;;;;;5094775;28;20024;-82
2021/03/01 05:40:06;;;;;;;26.67;18.13;;;6.30;99.90;;;;;;5076642;28;20024;-82
2021/03/01 05:42:34;;;;;;;26.27;18.17;;;6.30;99.90;;;;;;5083966;28;20039;-82
2021/03/01 05:45:01;;;;;;;28.75;18.77;;;6.20;99.90;;;;;;5094536;28;20024;-82
2021/03/01 05:47:27;;;;;;;26.65;18.15;;;6.30;99.90;;;;;;5094718;28;20027;-82
2021/03/01 05:49:57;;;;;;;29.35;20.33;;;6.30;99.90;;;;;;5094688;28;20020;-82
2021/03/01 05:52:23;;;;;;;22.52;17.40;;;6.60;99.90;;;;;;5094467;28;20020;-82
2021/03/01 05:54:50;;;;;;;29.27;19.33;;;6.20;99.90;;;;;;5092832;28;20514;-82
2021/03/01 05:57:17;;;;;;;26.38;18.33;;;6.20;99.90;;;;;;5087684;28;20059;-82
2021/03/01 05:59:46;;;;;;;25.92;18.33;;;6.50;99.90;;;;;;5074067;28;20060;-82
2021/03/01 06:02:13;;;;;;;25.38;18.42;;;6.20;99.90;;;;;;5088153;28;20058;-82
2021/03/01 06:04:39;;;;;;;26.27;18.85;;;6.70;99.90;;;;;;5094245;28;20036;-82
2021/03/01 06:07:05;;;;;;;28.92;18.13;;;6.40;99.90;;;;;;5075085;28;20051;-82
2021/03/01 06:09:31;;;;;;;26.20;18.88;;;6.60;99.90;;;;;;5085594;28;20055;-82
2021/03/01 06:11:56;;;;;;;27.25;19.92;;;6.20;99.90;;;;;;5094398;28;20024;-82
2021/03/01 06:14:22;;;;;;;26.58;18.58;;;6.20;99.90;;;;;;5093737;28;20059;-82
2021/03/01 06:17:10;;;;;;;26.83;18.95;;;6.20;99.90;;;;;;5094184;28;20106;-82
2021/03/01 06:19:46;;;;;;;29.65;19.20;;;6.30;99.90;;;;;;5094299;28;20028;-82
2021/03/01 06:22:12;;;;;;;27.48;18.83;;;6.20;99.90;;;;;;5093245;28;20020;-82
2021/03/01 06:24:38;;;;;;;29.95;18.77;;;6.70;99.90;;;;;;5093482;28;20479;-82
2021/03/01 06:27:05;;;;;;;27.80;19.52;;;6.20;99.90;;;;;;5093500;28;20028;-82
2021/03/01 06:29:31;;;;;;;27.23;19.00;;;6.20;99.90;;;;;;5092302;28;20046;-82
2021/03/01 06:31:57;;;;;;;27.35;19.52;;;6.20;99.90;;;;;;5089268;28;20074;-82
2021/03/01 06:34:26;;;;;;;27.17;18.83;;;6.70;99.90;;;;;;5073772;28;20016;-82
2021/03/01 06:37:12;;;;;;;31.80;18.73;;;6.30;99.90;;;;;;5082511;28;20024;-83
2021/03/01 06:39:51;;;;;;;26.38;18.48;;;6.40;99.90;;;;;;5091467;28;20031;-83
2021/03/01 06:42:17;;;;;;;31.25;19.38;;;6.80;99.90;;;;;;5093030;28;20097;-81
2021/03/01 06:44:58;;;;;;;29.10;18.95;;;6.50;99.90;;;;;;5073711;28;20476;-81
2021/03/01 06:47:44;;;;;;;30.17;19.88;;;6.50;99.90;;;;;;5090479;28;20032;-81
2021/03/01 06:50:22;;;;;;;28.45;18.73;;;6.60;99.90;;;;;;5085726;28;20020;-81
2021/03/01 06:52:49;;;;;;;26.20;18.10;;;7.10;99.90;;;;;;5088670;28;20454;-83
2021/03/01 06:55:15;;;;;;;26.15;18.42;;;7.20;99.90;;;;;;5088036;28;20021;-82
2021/03/01 06:57:41;;;;;;;25.63;19.27;;;6.70;99.90;;;;;;5087307;28;20104;-82
2021/03/01 07:00:07;;;;;;;28.52;19.02;;;7.00;99.90;;;;;;5093236;28;20052;-83
2021/03/01 07:02:41;;;;;;;29.73;19.20;;;6.90;99.90;;;;;;5091871;28;20044;-85
2021/03/01 07:05:07;;;;;;;25.92;18.40;;;7.00;99.90;;;;;;5090978;28;20145;-83
2021/03/01 07:07:35;;;;;;;31.17;18.77;;;7.00;99.90;;;;;;5089705;28;20035;-83
2021/03/01 07:10:01;;;;;;;29.10;18.98;;;7.50;99.90;;;;;;5093240;28;20024;-83
2021/03/01 07:12:49;;;;;;;30.23;19.30;;;7.10;99.90;;;;;;5082205;28;20017;-83
2021/03/01 07:15:16;;;;;;;27.35;19.88;;;7.20;99.90;;;;;;5085957;28;20020;-83
2021/03/01 07:17:43;;;;;;;34.15;20.13;;;7.50;99.90;;;;;;5092746;28;20099;-83
2021/03/01 07:20:14;;;;;;;30.58;19.05;;;7.40;99.90;;;;;;5092527;28;20028;-83
2021/03/01 07:22:41;;;;;;;30.70;19.60;;;7.40;99.90;;;;;;5092144;28;20016;-83
2021/03/01 07:25:09;;;;;;;30.77;20.02;;;7.60;99.90;;;;;;5091582;28;20027;-88
2021/03/01 07:27:41;;;;;;;30.52;19.35;;;7.70;99.90;;;;;;5092055;28;20028;-83
2021/03/01 07:30:10;;;;;;;28.02;19.90;;;7.80;99.90;;;;;;5091870;28;20034;-83
2021/03/01 07:32:38;;;;;;;28.13;18.67;;;7.90;99.90;;;;;;5092606;28;20030;-83
2021/03/01 07:35:06;;;;;;;26.63;18.70;;;7.90;99.90;;;;;;5092549;28;20024;-84
2021/03/01 07:37:34;;;;;;;28.80;19.00;;;8.00;99.90;;;;;;5087431;28;20128;-83
2021/03/01 07:40:00;;;;;;;27.35;18.70;;;8.10;99.90;;;;;;5084560;28;20034;-83
2021/03/01 07:42:29;;;;;;;31.70;20.48;;;8.30;99.90;;;;;;5080249;28;20552;-83
2021/03/01 07:44:55;;;;;;;28.38;20.05;;;8.60;99.90;;;;;;5081547;28;20055;-84
2021/03/01 07:47:27;;;;;;;27.70;19.60;;;8.40;99.90;;;;;;5081131;28;20548;-83
2021/03/01 07:49:53;;;;;;;32.50;20.10;;;8.60;99.90;;;;;;5085531;28;20449;-83
2021/03/01 07:52:19;;;;;;;30.42;20.67;;;8.60;99.90;;;;;;5053625;28;20025;-83
2021/03/01 07:54:51;;;;;;;30.67;20.80;;;9.00;99.90;;;;;;5081551;28;20034;-83
2021/03/01 07:57:21;;;;;;;26.70;20.55;;;8.70;99.90;;;;;;5071557;28;20032;-83
2021/03/01 07:59:47;;;;;;;28.58;19.58;;;8.60;99.90;;;;;;5071778;28;20028;-83
2021/03/01 08:02:29;;;;;;;33.85;20.80;;;8.70;99.90;;;;;;5071927;28;20047;-84
2021/03/01 08:04:56;;;;;;;31.45;21.25;;;8.80;99.90;;;;;;5072015;28;20411;-83
2021/03/01 08:07:37;;;;;;;28.60;21.48;;;9.20;99.90;;;;;;5054217;28;20651;-84
2021/03/01 08:10:05;;;;;;;30.13;20.77;;;8.90;99.90;;;;;;5074948;28;20032;-84
2021/03/01 08:12:36;;;;;;;30.02;20.33;;;9.10;99.90;;;;;;5091269;28;20024;-83
2021/03/01 08:15:04;;;;;;;33.85;20.38;;;9.30;99.90;;;;;;5090870;28;20361;-82
2021/03/01 08:17:31;;;;;;;30.70;21.50;;;9.50;99.90;;;;;;5092357;28;20408;-82
2021/03/01 08:19:59;;;;;;;35.85;22.17;;;9.60;99.90;;;;;;5073298;28;20028;-83
2021/03/01 08:22:25;;;;;;;30.60;20.60;;;9.80;99.90;;;;;;5091728;28;20145;-82
2021/03/01 08:24:55;;;;;;;30.35;20.60;;;9.90;99.90;;;;;;5090453;28;20039;-81
2021/03/01 08:27:27;;;;;;;31.60;21.02;;;10.10;99.90;;;;;;5092129;28;20067;-82
2021/03/01 08:30:34;;;;;;;28.02;18.10;;;10.40;99.90;;;;;;5094031;28;20024;-81
2021/03/01 08:33:09;;;;;;;28.40;18.35;;;10.50;99.90;;;;;;4994271;28;20037;-81
2021/03/01 08:35:35;;;;;;;26.73;18.25;;;10.70;99.90;;;;;;4994114;28;20453;-82
2021/03/01 08:38:01;;;;;;;25.63;17.17;;;10.90;99.90;;;;;;4993558;28;20430;-80
2021/03/01 08:40:27;;;;;;;26.40;16.90;;;11.30;99.90;;;;;;4992878;28;20046;-86
2021/03/01 08:42:59;;;;;;;26.88;17.83;;;11.80;99.90;;;;;;4994347;28;20038;-77
2021/03/01 08:45:35;;;;;;;24.70;17.15;;;12.20;99.90;;;;;;4994159;28;20030;-80
2021/03/01 08:48:04;;;;;;;26.77;17.90;;;13.50;99.90;;;;;;4994029;28;20042;-78
2021/03/01 08:50:40;;;;;;;26.63;18.10;;;16.90;99.90;;;;;;4993201;28;20190;-80
2021/03/01 08:53:06;;;;;;;26.60;17.90;;;19.60;99.90;;;;;;4991482;28;20046;-79
2021/03/01 08:55:35;;;;;;;31.15;18.95;;;21.10;99.90;;;;;;4985620;28;20037;-79
2021/03/01 08:58:07;;;;;;;27.42;17.98;;;22.20;99.90;;;;;;4990605;28;20033;-80
2021/03/01 09:00:36;;;;;;;23.10;16.40;;;23.80;99.90;;;;;;4974578;28;20035;-81
2021/03/01 09:03:17;;;;;;;25.58;18.40;;;25.20;99.90;;;;;;4991781;28;20141;-81
2021/03/01 09:05:49;;;;;;;25.40;16.88;;;25.70;99.90;;;;;;4996118;28;20069;-81
2021/03/01 09:08:30;;;;;;;20.90;17.55;;;26.90;99.90;;;;;;5092863;28;20492;-81
2021/03/01 09:10:57;;;;;;;22.77;16.67;;;27.10;99.90;;;;;;5091721;28;20070;-83
2021/03/01 09:13:24;;;;;;;26.40;17.85;;;26.70;99.90;;;;;;5093745;28;20028;-82
2021/03/01 09:15:50;;;;;;;23.80;16.80;;;28.00;99.90;;;;;;5093635;28;20035;-81
2021/03/01 09:18:16;;;;;;;24.60;17.05;;;27.40;99.90;;;;;;5094158;28;20020;-82
2021/03/01 09:20:56;;;;;;;20.80;17.38;;;28.20;99.90;;;;;;5085408;28;20020;-82
2021/03/01 09:23:32;;;;;;;23.10;17.33;;;29.20;99.90;;;;;;5074878;28;20075;-81
2021/03/01 09:25:58;;;;;;;19.52;16.73;;;29.40;99.90;;;;;;5074076;28;20059;-82
2021/03/01 09:28:29;;;;;;;23.40;16.67;;;28.60;99.90;;;;;;5055477;28;20024;-82
2021/03/01 09:31:08;;;;;;;21.25;16.50;;;28.60;99.90;;;;;;5073334;28;20055;-82
2021/03/01 09:33:35;;;;;;;21.23;15.88;;;29.10;99.90;;;;;;5073534;28;20056;-82
2021/03/01 09:36:01;;;;;;;24.27;16.40;;;29.60;99.90;;;;;;5073328;28;20035;-81
2021/03/01 09:38:27;;;;;;;19.05;16.13;;;29.20;99.90;;;;;;5074014;28;20095;-81
2021/03/01 09:41:03;;;;;;;21.05;15.25;;;28.50;99.90;;;;;;5072903;28;20554;-80
2021/03/01 09:43:30;;;;;;;21.88;16.05;;;28.00;99.90;;;;;;5073840;28;20431;-81
2021/03/01 09:45:58;;;;;;;21.10;16.90;;;29.20;99.90;;;;;;5073358;28;20032;-81
2021/03/01 09:48:28;;;;;;;22.00;15.73;;;29.70;99.90;;;;;;5073201;28;20457;-81
2021/03/01 09:50:55;;;;;;;19.98;16.05;;;29.50;99.90;;;;;;5072764;28;20031;-81
2021/03/01 09:53:23;;;;;;;19.73;16.45;;;29.00;99.90;;;;;;5072875;28;20369;-81
2021/03/01 09:55:53;;;;;;;20.83;16.77;;;30.20;99.90;;;;;;5073132;28;20024;-82
2021/03/01 09:58:42;;;;;;;23.30;16.55;;;31.10;99.90;;;;;;5073166;28;20046;-82
2021/03/01 10:01:13;;;;;;;24.70;17.33;;;31.20;99.90;;;;;;5055253;28;20039;-81
2021/03/01 10:03:41;;;;;;;20.23;17.75;;;31.00;99.90;;;;;;5078918;28;20055;-81
2021/03/01 10:06:08;;;;;;;24.83;16.75;;;31.70;99.90;;;;;;5088136;28;20054;-81
2021/03/01 10:08:34;;;;;;;21.10;16.30;;;32.30;99.90;;;;;;5077440;28;20040;-82
2021/03/01 10:10:59;;;;;;;22.38;17.00;;;32.90;99.90;;;;;;5074958;28;20030;-82
2021/03/01 10:13:28;;;;;;;19.88;16.95;;;32.70;99.90;;;;;;5079217;28;20055;-82
2021/03/01 10:15:54;;;;;;;24.48;17.40;;;32.10;99.90;;;;;;5077975;28;20028;-82
2021/03/01 10:18:22;;;;;;;22.30;17.65;;;32.10;99.90;;;;;;5103458;28;20055;-82
2021/03/01 10:20:59;;;;;;;21.15;17.63;;;32.80;99.90;;;;;;5078358;28;20029;-82
2021/03/01 10:23:37;;;;;;;20.05;17.38;;;33.70;99.90;;;;;;5083258;28;20028;-82
2021/03/01 10:26:04;;;;;;;23.98;17.50;;;34.30;99.90;;;;;;5092943;28;20571;-82
2021/03/01 10:28:33;;;;;;;18.27;16.20;;;33.80;99.90;;;;;;5091871;28;20457;-82
2021/03/01 10:31:13;;;;;;;21.77;17.00;;;33.20;99.90;;;;;;5092182;28;20107;-82
2021/03/01 10:33:48;;;;;;;19.55;16.55;;;33.40;99.90;;;;;;5092277;28;20107;-82
2021/03/01 10:36:13;;;;;;;19.45;15.43;;;35.10;99.90;;;;;;5091781;28;20024;-83
2021/03/01 10:38:55;;;;;;;19.75;15.82;;;36.40;99.90;;;;;;5090266;28;20505;-83
2021/03/01 10:41:22;;;;;;;18.10;16.27;;;36.10;99.90;;;;;;5092330;28;20028;-81
2021/03/01 10:43:56;;;;;;;23.33;16.58;;;36.50;99.90;;;;;;5092391;28;20043;-81
2021/03/01 10:46:37;;;;;;;21.77;17.02;;;36.50;99.90;;;;;;5092613;28;20487;-81
2021/03/01 10:49:31;;;;;;;18.58;16.42;;;36.80;99.90;;;;;;5078552;28;20023;-81
2021/03/01 10:51:58;;;;;;;17.75;15.90;;;36.30;99.90;;;;;;5086948;28;20028;-81
2021/03/01 10:54:26;;;;;;;22.48;16.95;;;36.70;99.90;;;;;;5068398;28;20415;-81
2021/03/01 10:56:54;;;;;;;18.60;15.63;;;37.00;99.90;;;;;;5085974;28;20360;-81
2021/03/01 10:59:20;;;;;;;22.05;16.65;;;37.50;99.90;;;;;;5091081;28;20028;-81
2021/03/01 11:01:47;;;;;;;19.80;15.98;;;37.10;99.90;;;;;;5090615;28;20533;-82
2021/03/01 11:04:15;;;;;;;20.98;17.08;;;38.00;99.90;;;;;;5090642;28;20599;-82
2021/03/01 11:06:41;;;;;;;22.10;16.65;;;37.30;99.90;;;;;;5083906;28;20064;-82
2021/03/01 11:09:09;;;;;;;18.30;16.13;;;37.30;99.90;;;;;;5088240;28;20047;-82
2021/03/01 11:11:36;;;;;;;21.20;15.80;;;37.50;99.90;;;;;;5091576;28;20433;-82
2021/03/01 11:14:03;;;;;;;19.27;15.23;;;37.40;99.90;;;;;;5091377;28;20016;-82
2021/03/01 11:16:29;;;;;;;19.88;14.80;;;38.30;99.90;;;;;;5083634;28;20059;-82
2021/03/01 11:18:55;;;;;;;20.60;14.63;;;37.20;99.90;;;;;;5087986;28;20196;-83
2021/03/01 11:21:21;;;;;;;21.20;15.35;;;36.50;99.90;;;;;;5084185;28;20505;-84
2021/03/01 11:23:46;;;;;;;19.30;14.15;;;37.40;99.90;;;;;;5093424;28;20130;-83
2021/03/01 11:26:14;;;;;;;19.70;14.25;;;38.30;99.90;;;;;;5098183;28;20031;-83
2021/03/01 11:28:40;;;;;;;20.92;14.43;;;38.40;99.90;;;;;;5084683;28;20138;-84
2021/03/01 11:31:06;;;;;;;19.73;14.13;;;37.00;99.90;;;;;;5090393;28;20491;-84
2021/03/01 11:33:32;;;;;;;15.77;13.85;;;37.00;99.90;;;;;;5080195;28;20086;-84
2021/03/01 11:35:58;;;;;;;19.42;13.27;;;38.00;99.90;;;;;;5082835;28;20037;-84
2021/03/01 11:38:25;;;;;;;18.88;14.57;;;38.50;99.90;;;;;;5071748;28;20020;-84
2021/03/01 11:40:51;;;;;;;19.63;13.23;;;37.50;99.90;;;;;;5072182;28;20028;-83
2021/03/01 11:43:17;;;;;;;17.00;12.80;;;38.00;99.90;;;;;;5078132;28;20395;-81
2021/03/01 11:45:43;;;;;;;21.85;14.18;;;38.90;99.90;;;;;;5091839;28;20035;-81
2021/03/01 11:48:11;;;;;;;21.25;13.50;;;38.40;99.90;;;;;;5091446;28;20020;-81
2021/03/01 11:50:38;;;;;;;19.85;12.45;;;37.80;99.90;;;;;;5089638;28;20023;-82
2021/03/01 11:53:04;;;;;;;16.35;12.25;;;38.80;99.90;;;;;;5083208;28;20031;-81
2021/03/01 11:55:30;;;;;;;19.38;12.88;;;38.60;99.90;;;;;;5092240;28;20043;-80
2021/03/01 11:57:56;;;;;;;16.33;11.75;;;38.90;99.90;;;;;;5076096;28;20510;-80
2021/03/01 12:00:22;;;;;;;18.60;12.48;;;39.60;99.90;;;;;;5088211;28;20024;-81
2021/03/01 12:02:47;;;;;;;20.27;13.82;;;38.60;99.90;;;;;;5076662;28;20182;-80
2021/03/01 12:05:14;;;;;;;21.02;11.52;;;36.30;99.90;;;;;;5084066;28;20039;-81
2021/03/01 12:07:39;;;;;;;18.52;12.00;;;37.20;99.90;;;;;;5074518;28;20075;-81
2021/03/01 12:10:06;;;;;;;15.85;11.88;;;37.50;99.90;;;;;;5083907;28;20028;-82
2021/03/01 12:12:31;;;;;;;21.55;11.85;;;37.50;99.90;;;;;;5090733;28;20324;-86
2021/03/01 12:14:57;;;;;;;14.93;11.05;;;38.10;99.90;;;;;;5090778;28;20099;-85
2021/03/01 12:17:23;;;;;;;16.92;12.13;;;37.00;99.90;;;;;;5070065;28;20059;-84
2021/03/01 12:19:48;;;;;;;14.68;11.55;;;37.40;99.90;;;;;;5081105;28;20099;-81
2021/03/01 12:22:14;;;;;;;14.93;11.63;;;38.30;99.90;;;;;;5078154;28;20025;-80
2021/03/01 12:24:40;;;;;;;17.67;11.43;;;38.10;99.90;;;;;;5077465;28;20280;-81
2021/03/01 12:27:05;;;;;;;16.85;11.95;;;38.80;99.90;;;;;;5080986;28;20031;-80
2021/03/01 12:29:31;;;;;;;13.88;10.63;;;38.90;99.90;;;;;;5051749;28;20107;-80
2021/03/01 12:31:57;;;;;;;15.63;10.43;;;37.90;99.90;;;;;;5069254;28;21235;-81
2021/03/01 12:34:22;;;;;;;13.90;10.75;;;36.80;99.90;;;;;;5090008;28;20028;-81
2021/03/01 12:36:48;;;;;;;15.60;11.32;;;36.50;99.90;;;;;;5072372;28;20427;-80
2021/03/01 12:39:14;;;;;;;12.27;10.02;;;35.10;99.90;;;;;;5068112;28;20086;-80